VXP385 KHVN-KDAB
Flight info
| Callsign | VXP385 |
|---|---|
| Flight time | 2h 4m |
| Altitude | 38000 |
| Route | BEADS EMJAY Q167 ZJAAY Q97 KALDA MOXXY Q85 LPERD TTHOR3 |
| Aircraft | B737/M-SDE2E3FGHIRWXY/LB1 |
Departure
| Time | 2026-04-27 20:53 |
|---|---|
| Airport | Tweed New Haven Airport (KHVN) |
Arrival
| Time | 2026-04-27 22:58 |
|---|---|
| Airport | Daytona Beach International Airport (KDAB) |
| Time | Latitude | Longitude | Altitude | Speed | Heading |
|---|---|---|---|---|---|
| 2026-04-27 20:35 | 41.26915 | -72.89005 | 30 ft | 0 kts | 310° |
| 2026-04-27 20:46 | 41.26909 | -72.88997 | 30 ft | 2 kts | 310° |
| 2026-04-27 20:46 | 41.26900 | -72.88982 | 29 ft | 2 kts | 310° |
| 2026-04-27 20:46 | 41.26889 | -72.88966 | 29 ft | 2 kts | 310° |
| 2026-04-27 20:47 | 41.26879 | -72.88950 | 28 ft | 2 kts | 310° |
| 2026-04-27 20:47 | 41.26870 | -72.88935 | 28 ft | 1 kts | 310° |
| 2026-04-27 20:47 | 41.26863 | -72.88927 | 28 ft | 1 kts | 357° |
| 2026-04-27 20:47 | 41.26853 | -72.88933 | 28 ft | 2 kts | 46° |
| 2026-04-27 20:48 | 41.26842 | -72.88946 | 28 ft | 1 kts | 38° |
| 2026-04-27 20:48 | 41.26840 | -72.88948 | 28 ft | 0 kts | 38° |
| 2026-04-27 20:51 | 41.26843 | -72.88945 | 28 ft | 1 kts | 38° |
| 2026-04-27 20:51 | 41.26857 | -72.88930 | 28 ft | 3 kts | 37° |
| 2026-04-27 20:51 | 41.26889 | -72.88909 | 28 ft | 6 kts | 10° |
| 2026-04-27 20:51 | 41.26936 | -72.88905 | 29 ft | 6 kts | 3° |
| 2026-04-27 20:52 | 41.26984 | -72.88896 | 29 ft | 8 kts | 9° |
| 2026-04-27 20:52 | 41.27043 | -72.88861 | 30 ft | 9 kts | 36° |
| 2026-04-27 20:52 | 41.27100 | -72.88797 | 29 ft | 12 kts | 51° |
| 2026-04-27 20:52 | 41.27047 | -72.88728 | 27 ft | 19 kts | 182° |
| 2026-04-27 20:53 | 41.26534 | -72.88763 | 26 ft | 127 kts | 182° |
| 2026-04-27 20:53 | 41.25398 | -72.88858 | 384 ft | 188 kts | 184° |
| 2026-04-27 20:53 | 41.24100 | -72.88924 | 1207 ft | 186 kts | 176° |
| 2026-04-27 20:53 | 41.22810 | -72.88417 | 1855 ft | 208 kts | 141° |
| 2026-04-27 20:54 | 41.20612 | -72.85613 | 3429 ft | 238 kts | 140° |
| 2026-04-27 20:54 | 41.19144 | -72.84450 | 4284 ft | 254 kts | 149° |
| 2026-04-27 20:54 | 41.17577 | -72.83422 | 5191 ft | 266 kts | 150° |
| 2026-04-27 20:55 | 41.15861 | -72.82322 | 6034 ft | 281 kts | 150° |
| 2026-04-27 20:55 | 41.14100 | -72.81176 | 7100 ft | 285 kts | 149° |
| 2026-04-27 20:55 | 41.12332 | -72.80011 | 8170 ft | 289 kts | 149° |
| 2026-04-27 20:55 | 41.10518 | -72.78804 | 9165 ft | 295 kts | 149° |
| 2026-04-27 20:56 | 41.08645 | -72.77556 | 10205 ft | 300 kts | 149° |
| 2026-04-27 20:56 | 41.06753 | -72.76295 | 10993 ft | 312 kts | 149° |
| 2026-04-27 20:56 | 41.04768 | -72.74968 | 11629 ft | 329 kts | 149° |
| 2026-04-27 20:56 | 41.02665 | -72.73565 | 12265 ft | 345 kts | 150° |
| 2026-04-27 20:57 | 41.00464 | -72.72100 | 12842 ft | 362 kts | 150° |
| 2026-04-27 20:57 | 40.98137 | -72.70555 | 13587 ft | 374 kts | 150° |
| 2026-04-27 20:57 | 40.95807 | -72.69014 | 14496 ft | 378 kts | 150° |
| 2026-04-27 20:57 | 40.93439 | -72.67447 | 15294 ft | 386 kts | 149° |
| 2026-04-27 20:58 | 40.90986 | -72.65824 | 16049 ft | 394 kts | 150° |
| 2026-04-27 20:58 | 40.88512 | -72.64188 | 16881 ft | 399 kts | 150° |
| 2026-04-27 20:58 | 40.85992 | -72.62523 | 17571 ft | 407 kts | 150° |
| 2026-04-27 20:58 | 40.83447 | -72.60841 | 18318 ft | 412 kts | 149° |
| 2026-04-27 20:59 | 40.80866 | -72.59141 | 19031 ft | 419 kts | 150° |
| 2026-04-27 20:59 | 40.78132 | -72.57684 | 19762 ft | 427 kts | 160° |
| 2026-04-27 20:59 | 40.75188 | -72.56822 | 20519 ft | 434 kts | 171° |
| 2026-04-27 20:59 | 40.72104 | -72.56632 | 21134 ft | 442 kts | 182° |
| 2026-04-27 21:00 | 40.69031 | -72.57115 | 21477 ft | 454 kts | 192° |
| 2026-04-27 21:00 | 40.65982 | -72.58273 | 21691 ft | 464 kts | 202° |
| 2026-04-27 21:00 | 40.63008 | -72.60146 | 21965 ft | 474 kts | 213° |
| 2026-04-27 21:00 | 40.60269 | -72.62674 | 22406 ft | 478 kts | 224° |
| 2026-04-27 21:01 | 40.57899 | -72.65726 | 23042 ft | 475 kts | 234° |
| 2026-04-27 21:01 | 40.55848 | -72.69109 | 23782 ft | 472 kts | 239° |
| 2026-04-27 21:01 | 40.53870 | -72.72611 | 24433 ft | 475 kts | 240° |
| 2026-04-27 21:01 | 40.51848 | -72.76054 | 25040 ft | 480 kts | 238° |
| 2026-04-27 21:02 | 40.49685 | -72.79439 | 25600 ft | 487 kts | 235° |
| 2026-04-27 21:02 | 40.47383 | -72.82725 | 26273 ft | 491 kts | 232° |
| 2026-04-27 21:02 | 40.44953 | -72.85923 | 26957 ft | 494 kts | 230° |
| 2026-04-27 21:02 | 40.42415 | -72.89049 | 27951 ft | 489 kts | 229° |
| 2026-04-27 21:03 | 40.39901 | -72.92008 | 29000 ft | 481 kts | 229° |
| 2026-04-27 21:03 | 40.37371 | -72.94909 | 29841 ft | 478 kts | 228° |
| 2026-04-27 21:03 | 40.34835 | -72.97781 | 30160 ft | 485 kts | 228° |
| 2026-04-27 21:03 | 40.32272 | -73.00662 | 30657 ft | 487 kts | 228° |
| 2026-04-27 21:04 | 40.29700 | -73.03529 | 31413 ft | 483 kts | 228° |
| 2026-04-27 21:04 | 40.27158 | -73.06350 | 32168 ft | 477 kts | 229° |
| 2026-04-27 21:04 | 40.24611 | -73.09174 | 32632 ft | 479 kts | 229° |
| 2026-04-27 21:04 | 40.22060 | -73.12005 | 33112 ft | 479 kts | 229° |
| 2026-04-27 21:05 | 40.19493 | -73.14851 | 33649 ft | 478 kts | 229° |
| 2026-04-27 21:05 | 40.16991 | -73.17621 | 34241 ft | 475 kts | 229° |
| 2026-04-27 21:05 | 40.14447 | -73.20433 | 34796 ft | 471 kts | 230° |
| 2026-04-27 21:05 | 40.11956 | -73.23189 | 35136 ft | 472 kts | 230° |
| 2026-04-27 21:06 | 40.09469 | -73.25942 | 35482 ft | 473 kts | 229° |
| 2026-04-27 21:06 | 40.06961 | -73.28729 | 35868 ft | 472 kts | 229° |
| 2026-04-27 21:06 | 40.04487 | -73.31492 | 36271 ft | 470 kts | 229° |
| 2026-04-27 21:06 | 40.02008 | -73.34268 | 36733 ft | 469 kts | 230° |
| 2026-04-27 21:07 | 39.99537 | -73.37040 | 37220 ft | 467 kts | 230° |
| 2026-04-27 21:07 | 39.97109 | -73.39761 | 37744 ft | 462 kts | 229° |
| 2026-04-27 21:07 | 39.94676 | -73.42484 | 38136 ft | 461 kts | 229° |
| 2026-04-27 21:07 | 39.92230 | -73.45222 | 38259 ft | 466 kts | 229° |
| 2026-04-27 21:08 | 39.89756 | -73.47995 | 38255 ft | 472 kts | 229° |
| 2026-04-27 21:08 | 39.84741 | -73.53606 | 38263 ft | 483 kts | 229° |
| 2026-04-27 21:09 | 39.79577 | -73.59367 | 38259 ft | 492 kts | 229° |
| 2026-04-27 21:09 | 39.74406 | -73.65112 | 38269 ft | 493 kts | 228° |
| 2026-04-27 21:10 | 39.69204 | -73.70871 | 38255 ft | 492 kts | 228° |
| 2026-04-27 21:10 | 39.63967 | -73.76662 | 38256 ft | 491 kts | 228° |
| 2026-04-27 21:11 | 39.58800 | -73.82365 | 38255 ft | 490 kts | 228° |
| 2026-04-27 21:11 | 39.53606 | -73.88090 | 38251 ft | 490 kts | 229° |
| 2026-04-27 21:12 | 39.48427 | -73.93791 | 38256 ft | 491 kts | 229° |
| 2026-04-27 21:12 | 39.43244 | -73.99477 | 38261 ft | 489 kts | 229° |
| 2026-04-27 21:13 | 39.38075 | -74.05145 | 38259 ft | 493 kts | 229° |
| 2026-04-27 21:13 | 39.32879 | -74.10820 | 38260 ft | 487 kts | 229° |
| 2026-04-27 21:14 | 39.27693 | -74.16476 | 38259 ft | 494 kts | 229° |
| 2026-04-27 21:14 | 39.22460 | -74.22166 | 38260 ft | 490 kts | 229° |
| 2026-04-27 21:15 | 39.17276 | -74.27795 | 38260 ft | 490 kts | 229° |
| 2026-04-27 21:15 | 39.12030 | -74.33480 | 38258 ft | 492 kts | 229° |
| 2026-04-27 21:16 | 39.06811 | -74.39125 | 38257 ft | 492 kts | 229° |
| 2026-04-27 21:16 | 39.01591 | -74.44765 | 38255 ft | 494 kts | 229° |
| 2026-04-27 21:17 | 38.96348 | -74.50407 | 38255 ft | 491 kts | 229° |
| 2026-04-27 21:17 | 38.91108 | -74.56133 | 38260 ft | 494 kts | 231° |
| 2026-04-27 21:18 | 38.86050 | -74.62017 | 38252 ft | 492 kts | 232° |
| 2026-04-27 21:18 | 38.81087 | -74.67902 | 38267 ft | 487 kts | 232° |
| 2026-04-27 21:19 | 38.76083 | -74.73824 | 38259 ft | 490 kts | 232° |
| 2026-04-27 21:19 | 38.70959 | -74.79622 | 38256 ft | 495 kts | 229° |
| 2026-04-27 21:20 | 38.62885 | -74.87974 | 38260 ft | 499 kts | 227° |
| 2026-04-27 21:20 | 38.57480 | -74.93488 | 38258 ft | 499 kts | 227° |
| 2026-04-27 21:21 | 38.52039 | -74.99077 | 38267 ft | 499 kts | 228° |
| 2026-04-27 21:21 | 38.46782 | -75.04768 | 38259 ft | 495 kts | 230° |
| 2026-04-27 21:22 | 38.41412 | -75.10349 | 38261 ft | 500 kts | 226° |
| 2026-04-27 21:22 | 38.35833 | -75.15645 | 38262 ft | 504 kts | 225° |
| 2026-04-27 21:23 | 38.30117 | -75.20955 | 38263 ft | 505 kts | 225° |
| 2026-04-27 21:23 | 38.24488 | -75.26195 | 38260 ft | 502 kts | 225° |
| 2026-04-27 21:24 | 38.18811 | -75.31523 | 38260 ft | 506 kts | 225° |
| 2026-04-27 21:24 | 38.13147 | -75.36852 | 38256 ft | 507 kts | 225° |
| 2026-04-27 21:25 | 38.07543 | -75.42117 | 38258 ft | 504 kts | 225° |
| 2026-04-27 21:25 | 38.01834 | -75.47407 | 38260 ft | 507 kts | 224° |
| 2026-04-27 21:26 | 37.96029 | -75.52494 | 38252 ft | 509 kts | 223° |
| 2026-04-27 21:26 | 37.90224 | -75.57484 | 38255 ft | 508 kts | 223° |
| 2026-04-27 21:27 | 37.84357 | -75.62523 | 38256 ft | 510 kts | 223° |
| 2026-04-27 21:27 | 37.78645 | -75.67738 | 38249 ft | 503 kts | 225° |
| 2026-04-27 21:28 | 37.73139 | -75.73142 | 38248 ft | 501 kts | 226° |
| 2026-04-27 21:28 | 37.67633 | -75.78603 | 38252 ft | 501 kts | 226° |
| 2026-04-27 21:29 | 37.62082 | -75.84064 | 38255 ft | 505 kts | 226° |
| 2026-04-27 21:29 | 37.56569 | -75.89427 | 38247 ft | 503 kts | 225° |
| 2026-04-27 21:30 | 37.51007 | -75.94807 | 38244 ft | 502 kts | 226° |
| 2026-04-27 21:30 | 37.45476 | -76.00140 | 38224 ft | 506 kts | 226° |
| 2026-04-27 21:31 | 37.39925 | -76.05475 | 38234 ft | 504 kts | 226° |
| 2026-04-27 21:31 | 37.34363 | -76.10807 | 38235 ft | 502 kts | 225° |
| 2026-04-27 21:32 | 37.28804 | -76.16130 | 38245 ft | 504 kts | 226° |
| 2026-04-27 21:32 | 37.23245 | -76.21451 | 38240 ft | 504 kts | 225° |
| 2026-04-27 21:33 | 37.17674 | -76.26767 | 38247 ft | 502 kts | 225° |
| 2026-04-27 21:33 | 37.12153 | -76.32018 | 38252 ft | 503 kts | 226° |
| 2026-04-27 21:34 | 37.06594 | -76.37304 | 38249 ft | 502 kts | 226° |
| 2026-04-27 21:34 | 37.01043 | -76.42576 | 38245 ft | 503 kts | 225° |
| 2026-04-27 21:35 | 36.95488 | -76.47840 | 38250 ft | 505 kts | 225° |
| 2026-04-27 21:35 | 36.89933 | -76.53092 | 38251 ft | 503 kts | 225° |
| 2026-04-27 21:36 | 36.84326 | -76.58379 | 38256 ft | 501 kts | 225° |
| 2026-04-27 21:36 | 36.78758 | -76.63622 | 38253 ft | 503 kts | 225° |
| 2026-04-27 21:37 | 36.73193 | -76.68854 | 38257 ft | 504 kts | 224° |
| 2026-04-27 21:37 | 36.67593 | -76.74109 | 38253 ft | 504 kts | 225° |
| 2026-04-27 21:38 | 36.61991 | -76.79354 | 38250 ft | 504 kts | 224° |
| 2026-04-27 21:38 | 36.56417 | -76.84563 | 38240 ft | 506 kts | 224° |
| 2026-04-27 21:39 | 36.50847 | -76.89758 | 38233 ft | 503 kts | 225° |
| 2026-04-27 21:39 | 36.45250 | -76.94967 | 38229 ft | 504 kts | 224° |
| 2026-04-27 21:40 | 36.39642 | -77.00179 | 38226 ft | 505 kts | 224° |
| 2026-04-27 21:40 | 36.34010 | -77.05410 | 38231 ft | 506 kts | 224° |
| 2026-04-27 21:41 | 36.28417 | -77.10583 | 38230 ft | 504 kts | 224° |
| 2026-04-27 21:41 | 36.22812 | -77.15771 | 38231 ft | 507 kts | 224° |
| 2026-04-27 21:42 | 36.17189 | -77.20957 | 38224 ft | 505 kts | 224° |
| 2026-04-27 21:42 | 36.11547 | -77.26150 | 38221 ft | 503 kts | 224° |
| 2026-04-27 21:43 | 36.05953 | -77.31296 | 38217 ft | 506 kts | 224° |
| 2026-04-27 21:43 | 36.00364 | -77.36513 | 38218 ft | 502 kts | 225° |
| 2026-04-27 21:44 | 35.94871 | -77.41836 | 38223 ft | 504 kts | 226° |
| 2026-04-27 21:44 | 35.89418 | -77.47155 | 38221 ft | 502 kts | 226° |
| 2026-04-27 21:45 | 35.83962 | -77.52457 | 38221 ft | 505 kts | 226° |
| 2026-04-27 21:45 | 35.78481 | -77.57752 | 38217 ft | 505 kts | 226° |
| 2026-04-27 21:46 | 35.72948 | -77.63072 | 38214 ft | 503 kts | 226° |
| 2026-04-27 21:46 | 35.67445 | -77.68357 | 38209 ft | 506 kts | 225° |
| 2026-04-27 21:47 | 35.61910 | -77.73650 | 38205 ft | 504 kts | 225° |
| 2026-04-27 21:47 | 35.56407 | -77.78905 | 38211 ft | 504 kts | 225° |
| 2026-04-27 21:48 | 35.50895 | -77.84164 | 38213 ft | 504 kts | 224° |
| 2026-04-27 21:48 | 35.45372 | -77.89420 | 38216 ft | 507 kts | 225° |
| 2026-04-27 21:49 | 35.39793 | -77.94724 | 38214 ft | 505 kts | 224° |
| 2026-04-27 21:49 | 35.34297 | -77.99929 | 38215 ft | 503 kts | 225° |
| 2026-04-27 21:50 | 35.28749 | -78.05187 | 38202 ft | 507 kts | 225° |
| 2026-04-27 21:50 | 35.23197 | -78.10441 | 38201 ft | 505 kts | 224° |
| 2026-04-27 21:51 | 35.17686 | -78.15635 | 38193 ft | 505 kts | 225° |
| 2026-04-27 21:51 | 35.12183 | -78.20816 | 38193 ft | 501 kts | 224° |
| 2026-04-27 21:52 | 35.06640 | -78.26031 | 38185 ft | 505 kts | 224° |
| 2026-04-27 21:52 | 35.01087 | -78.31245 | 38190 ft | 506 kts | 224° |
| 2026-04-27 21:53 | 34.95549 | -78.36430 | 38193 ft | 503 kts | 224° |
| 2026-04-27 21:53 | 34.90020 | -78.41595 | 38183 ft | 501 kts | 224° |
| 2026-04-27 21:54 | 34.84526 | -78.46723 | 38183 ft | 501 kts | 224° |
| 2026-04-27 21:54 | 34.78995 | -78.51888 | 38187 ft | 505 kts | 224° |
| 2026-04-27 21:55 | 34.73446 | -78.57054 | 38178 ft | 501 kts | 224° |
| 2026-04-27 21:55 | 34.67952 | -78.62157 | 38193 ft | 500 kts | 223° |
| 2026-04-27 21:56 | 34.59650 | -78.69854 | 38192 ft | 501 kts | 223° |
| 2026-04-27 21:57 | 34.54114 | -78.74975 | 38176 ft | 500 kts | 223° |
| 2026-04-27 21:57 | 34.48617 | -78.80051 | 38181 ft | 503 kts | 222° |
| 2026-04-27 21:58 | 34.43077 | -78.85137 | 38181 ft | 500 kts | 221° |
| 2026-04-27 21:58 | 34.37445 | -78.90019 | 38176 ft | 502 kts | 219° |
| 2026-04-27 21:59 | 34.31713 | -78.94795 | 38179 ft | 503 kts | 219° |
| 2026-04-27 21:59 | 34.25944 | -78.99577 | 38172 ft | 500 kts | 219° |
| 2026-04-27 22:00 | 34.20216 | -79.04346 | 38173 ft | 501 kts | 219° |
| 2026-04-27 22:00 | 34.14512 | -79.09116 | 38175 ft | 502 kts | 219° |
| 2026-04-27 22:01 | 34.08829 | -79.13869 | 38177 ft | 501 kts | 219° |
| 2026-04-27 22:01 | 34.03119 | -79.18639 | 38173 ft | 501 kts | 219° |
| 2026-04-27 22:02 | 33.97402 | -79.23414 | 38179 ft | 501 kts | 219° |
| 2026-04-27 22:02 | 33.91711 | -79.28159 | 38177 ft | 499 kts | 219° |
| 2026-04-27 22:03 | 33.85983 | -79.32931 | 38172 ft | 499 kts | 219° |
| 2026-04-27 22:03 | 33.80279 | -79.37675 | 38171 ft | 500 kts | 219° |
| 2026-04-27 22:04 | 33.74543 | -79.42439 | 38166 ft | 499 kts | 219° |
| 2026-04-27 22:04 | 33.68853 | -79.47156 | 38166 ft | 501 kts | 219° |
| 2026-04-27 22:05 | 33.63121 | -79.51897 | 38164 ft | 498 kts | 219° |
| 2026-04-27 22:05 | 33.57428 | -79.56597 | 38164 ft | 498 kts | 219° |
| 2026-04-27 22:06 | 33.51734 | -79.61293 | 38161 ft | 498 kts | 219° |
| 2026-04-27 22:06 | 33.46064 | -79.65962 | 38157 ft | 499 kts | 219° |
| 2026-04-27 22:07 | 33.40342 | -79.70664 | 38158 ft | 499 kts | 218° |
| 2026-04-27 22:07 | 33.34654 | -79.75333 | 38157 ft | 499 kts | 218° |
| 2026-04-27 22:08 | 33.29069 | -79.79907 | 38159 ft | 498 kts | 218° |
| 2026-04-27 22:08 | 33.23367 | -79.84570 | 38163 ft | 498 kts | 218° |
| 2026-04-27 22:09 | 33.17664 | -79.89224 | 38167 ft | 498 kts | 218° |
| 2026-04-27 22:09 | 33.11969 | -79.93865 | 38173 ft | 496 kts | 218° |
| 2026-04-27 22:10 | 33.06322 | -79.98460 | 38176 ft | 497 kts | 218° |
| 2026-04-27 22:10 | 33.00617 | -80.03096 | 38176 ft | 498 kts | 218° |
| 2026-04-27 22:11 | 32.94942 | -80.07699 | 38174 ft | 498 kts | 218° |
| 2026-04-27 22:11 | 32.89211 | -80.12337 | 38180 ft | 496 kts | 218° |
| 2026-04-27 22:12 | 32.83520 | -80.16938 | 38172 ft | 497 kts | 218° |
| 2026-04-27 22:12 | 32.77819 | -80.21539 | 38173 ft | 495 kts | 218° |
| 2026-04-27 22:13 | 32.72194 | -80.26074 | 38167 ft | 495 kts | 218° |
| 2026-04-27 22:13 | 32.66485 | -80.30669 | 38162 ft | 494 kts | 218° |
| 2026-04-27 22:14 | 32.60802 | -80.35235 | 38159 ft | 494 kts | 218° |
| 2026-04-27 22:14 | 32.55083 | -80.39726 | 38162 ft | 496 kts | 216° |
| 2026-04-27 22:15 | 32.49102 | -80.43840 | 38164 ft | 497 kts | 212° |
| 2026-04-27 22:15 | 32.43001 | -80.47822 | 38161 ft | 498 kts | 212° |
| 2026-04-27 22:16 | 32.37030 | -80.51737 | 38176 ft | 496 kts | 213° |
| 2026-04-27 22:16 | 32.31047 | -80.55709 | 38183 ft | 497 kts | 213° |
| 2026-04-27 22:17 | 32.25050 | -80.59717 | 38184 ft | 495 kts | 213° |
| 2026-04-27 22:17 | 32.19060 | -80.63731 | 38188 ft | 495 kts | 213° |
| 2026-04-27 22:18 | 32.13068 | -80.67745 | 38193 ft | 495 kts | 213° |
| 2026-04-27 22:18 | 32.07025 | -80.71787 | 38179 ft | 496 kts | 213° |
| 2026-04-27 22:19 | 32.01026 | -80.75791 | 38179 ft | 497 kts | 213° |
| 2026-04-27 22:19 | 31.95013 | -80.79798 | 38181 ft | 496 kts | 212° |
| 2026-04-27 22:20 | 31.89000 | -80.83800 | 38165 ft | 495 kts | 212° |
| 2026-04-27 22:20 | 31.83106 | -80.87716 | 38160 ft | 495 kts | 213° |
| 2026-04-27 22:21 | 31.77116 | -80.91691 | 38176 ft | 492 kts | 212° |
| 2026-04-27 22:21 | 31.71152 | -80.95642 | 38186 ft | 492 kts | 211° |
| 2026-04-27 22:22 | 31.65227 | -80.99563 | 38166 ft | 490 kts | 212° |
| 2026-04-27 22:22 | 31.59299 | -81.03479 | 38176 ft | 491 kts | 211° |
| 2026-04-27 22:23 | 31.53334 | -81.07297 | 38170 ft | 490 kts | 210° |
| 2026-04-27 22:23 | 31.47269 | -81.10995 | 38172 ft | 490 kts | 210° |
| 2026-04-27 22:24 | 31.41274 | -81.14618 | 38168 ft | 490 kts | 210° |
| 2026-04-27 22:24 | 31.35189 | -81.18290 | 38166 ft | 489 kts | 210° |
| 2026-04-27 22:25 | 31.29156 | -81.21869 | 38168 ft | 488 kts | 209° |
| 2026-04-27 22:25 | 31.23064 | -81.25447 | 38180 ft | 490 kts | 208° |
| 2026-04-27 22:26 | 31.16671 | -81.28055 | 38168 ft | 494 kts | 192° |
| 2026-04-27 22:26 | 31.09836 | -81.28607 | 38171 ft | 496 kts | 182° |
| 2026-04-27 22:27 | 31.03005 | -81.28530 | 38168 ft | 497 kts | 180° |
| 2026-04-27 22:27 | 30.96160 | -81.28359 | 38017 ft | 485 kts | 180° |
| 2026-04-27 22:27 | 30.92820 | -81.28292 | 37371 ft | 488 kts | 180° |
| 2026-04-27 22:28 | 30.89500 | -81.28243 | 36518 ft | 486 kts | 181° |
| 2026-04-27 22:28 | 30.86123 | -81.28207 | 35639 ft | 483 kts | 181° |
| 2026-04-27 22:28 | 30.82735 | -81.28183 | 34762 ft | 484 kts | 181° |
| 2026-04-27 22:28 | 30.79394 | -81.28167 | 33910 ft | 488 kts | 181° |
| 2026-04-27 22:29 | 30.76008 | -81.28156 | 33087 ft | 492 kts | 182° |
| 2026-04-27 22:29 | 30.72657 | -81.28148 | 32308 ft | 493 kts | 182° |
| 2026-04-27 22:29 | 30.69225 | -81.28140 | 31504 ft | 494 kts | 181° |
| 2026-04-27 22:29 | 30.65835 | -81.28133 | 30723 ft | 497 kts | 182° |
| 2026-04-27 22:30 | 30.62384 | -81.28125 | 30278 ft | 497 kts | 181° |
| 2026-04-27 22:30 | 30.58935 | -81.28108 | 30165 ft | 497 kts | 181° |
| 2026-04-27 22:30 | 30.55530 | -81.28020 | 30158 ft | 500 kts | 180° |
| 2026-04-27 22:31 | 30.48531 | -81.27666 | 29589 ft | 506 kts | 179° |
| 2026-04-27 22:31 | 30.45018 | -81.27456 | 28814 ft | 504 kts | 179° |
| 2026-04-27 22:31 | 30.41559 | -81.27246 | 28031 ft | 503 kts | 179° |
| 2026-04-27 22:31 | 30.38055 | -81.27039 | 27246 ft | 507 kts | 179° |
| 2026-04-27 22:32 | 30.34491 | -81.26831 | 26450 ft | 506 kts | 178° |
| 2026-04-27 22:32 | 30.30957 | -81.26582 | 25662 ft | 508 kts | 177° |
| 2026-04-27 22:32 | 30.27461 | -81.26278 | 24872 ft | 504 kts | 178° |
| 2026-04-27 22:32 | 30.23927 | -81.26044 | 24258 ft | 499 kts | 178° |
| 2026-04-27 22:33 | 30.20440 | -81.25851 | 23543 ft | 496 kts | 178° |
| 2026-04-27 22:33 | 30.16992 | -81.25674 | 22763 ft | 490 kts | 179° |
| 2026-04-27 22:33 | 30.13607 | -81.25499 | 21984 ft | 484 kts | 178° |
| 2026-04-27 22:33 | 30.10243 | -81.25320 | 21207 ft | 479 kts | 178° |
| 2026-04-27 22:34 | 30.06932 | -81.25139 | 20435 ft | 475 kts | 178° |
| 2026-04-27 22:34 | 30.03652 | -81.24953 | 19668 ft | 468 kts | 178° |
| 2026-04-27 22:34 | 30.00463 | -81.24768 | 18915 ft | 462 kts | 178° |
| 2026-04-27 22:34 | 29.97251 | -81.24579 | 18149 ft | 458 kts | 177° |
| 2026-04-27 22:35 | 29.94081 | -81.24390 | 17383 ft | 444 kts | 177° |
| 2026-04-27 22:35 | 29.91056 | -81.24211 | 16643 ft | 427 kts | 178° |
| 2026-04-27 22:35 | 29.88159 | -81.24075 | 16144 ft | 408 kts | 179° |
| 2026-04-27 22:35 | 29.85298 | -81.23970 | 15432 ft | 403 kts | 179° |
| 2026-04-27 22:36 | 29.82550 | -81.23882 | 14669 ft | 398 kts | 179° |
| 2026-04-27 22:36 | 29.79784 | -81.23796 | 13889 ft | 393 kts | 179° |
| 2026-04-27 22:36 | 29.77074 | -81.23711 | 13112 ft | 386 kts | 179° |
| 2026-04-27 22:36 | 29.74417 | -81.23628 | 12463 ft | 380 kts | 178° |
| 2026-04-27 22:37 | 29.71779 | -81.23542 | 12188 ft | 379 kts | 178° |
| 2026-04-27 22:37 | 29.69136 | -81.23449 | 12146 ft | 381 kts | 178° |
| 2026-04-27 22:37 | 29.66502 | -81.23193 | 12136 ft | 381 kts | 171° |
| 2026-04-27 22:37 | 29.63938 | -81.22441 | 12127 ft | 378 kts | 161° |
| 2026-04-27 22:38 | 29.61479 | -81.21372 | 12089 ft | 381 kts | 157° |
| 2026-04-27 22:38 | 29.59046 | -81.20171 | 11743 ft | 380 kts | 155° |
| 2026-04-27 22:38 | 29.56660 | -81.18953 | 11284 ft | 372 kts | 155° |
| 2026-04-27 22:38 | 29.54323 | -81.17774 | 11139 ft | 360 kts | 155° |
| 2026-04-27 22:39 | 29.52013 | -81.16642 | 11114 ft | 360 kts | 156° |
| 2026-04-27 22:39 | 29.49648 | -81.15768 | 11104 ft | 353 kts | 171° |
| 2026-04-27 22:39 | 29.47308 | -81.15887 | 10854 ft | 333 kts | 195° |
| 2026-04-27 22:39 | 29.45205 | -81.16892 | 10307 ft | 325 kts | 211° |
| 2026-04-27 22:40 | 29.43322 | -81.18324 | 9699 ft | 319 kts | 217° |
| 2026-04-27 22:40 | 29.41430 | -81.19613 | 9053 ft | 317 kts | 206° |
| 2026-04-27 22:40 | 29.39371 | -81.20475 | 8311 ft | 315 kts | 197° |
| 2026-04-27 22:40 | 29.37316 | -81.21084 | 7582 ft | 313 kts | 194° |
| 2026-04-27 22:41 | 29.35210 | -81.21629 | 6832 ft | 310 kts | 193° |
| 2026-04-27 22:41 | 29.33128 | -81.22167 | 6315 ft | 298 kts | 194° |
| 2026-04-27 22:41 | 29.31168 | -81.22694 | 5901 ft | 288 kts | 194° |
| 2026-04-27 22:41 | 29.29278 | -81.23218 | 5341 ft | 284 kts | 194° |
| 2026-04-27 22:42 | 29.27416 | -81.23745 | 5142 ft | 280 kts | 194° |
| 2026-04-27 22:42 | 29.25555 | -81.24275 | 5128 ft | 284 kts | 194° |
| 2026-04-27 22:42 | 29.23742 | -81.24791 | 5145 ft | 275 kts | 194° |
| 2026-04-27 22:42 | 29.21843 | -81.25331 | 4842 ft | 273 kts | 194° |
| 2026-04-27 22:43 | 29.20062 | -81.25838 | 4367 ft | 266 kts | 193° |
| 2026-04-27 22:43 | 29.18362 | -81.26321 | 4137 ft | 256 kts | 193° |
| 2026-04-27 22:43 | 29.16669 | -81.26794 | 4126 ft | 258 kts | 192° |
| 2026-04-27 22:43 | 29.14906 | -81.27043 | 4028 ft | 253 kts | 177° |
| 2026-04-27 22:44 | 29.13311 | -81.26505 | 3565 ft | 241 kts | 144° |
| 2026-04-27 22:44 | 29.12232 | -81.25172 | 3180 ft | 222 kts | 116° |
| 2026-04-27 22:44 | 29.11676 | -81.23643 | 3120 ft | 197 kts | 103° |
| 2026-04-27 22:44 | 29.11448 | -81.22187 | 2905 ft | 186 kts | 86° |
| 2026-04-27 22:45 | 29.11740 | -81.20800 | 2450 ft | 185 kts | 64° |
| 2026-04-27 22:45 | 29.12342 | -81.19509 | 2141 ft | 179 kts | 59° |
| 2026-04-27 22:45 | 29.12893 | -81.18325 | 2115 ft | 170 kts | 61° |
| 2026-04-27 22:45 | 29.13423 | -81.17124 | 2127 ft | 163 kts | 62° |
| 2026-04-27 22:46 | 29.13909 | -81.15964 | 2115 ft | 157 kts | 66° |
| 2026-04-27 22:46 | 29.14171 | -81.14841 | 2118 ft | 141 kts | 71° |
| 2026-04-27 22:46 | 29.14512 | -81.13801 | 2108 ft | 140 kts | 62° |
| 2026-04-27 22:46 | 29.14986 | -81.12818 | 1799 ft | 137 kts | 56° |
| 2026-04-27 22:47 | 29.15471 | -81.11910 | 1655 ft | 137 kts | 57° |
| 2026-04-27 22:47 | 29.15948 | -81.10947 | 1232 ft | 144 kts | 59° |
| 2026-04-27 22:47 | 29.16392 | -81.09915 | 772 ft | 146 kts | 63° |
| 2026-04-27 22:47 | 29.16780 | -81.08908 | 509 ft | 135 kts | 61° |
| 2026-04-27 22:48 | 29.17191 | -81.07953 | 176 ft | 136 kts | 62° |
| 2026-04-27 22:48 | 29.17571 | -81.07004 | 37 ft | 124 kts | 61° |
| 2026-04-27 22:48 | 29.17938 | -81.06104 | 375 ft | 145 kts | 62° |
| 2026-04-27 22:48 | 29.18353 | -81.04948 | 1206 ft | 179 kts | 64° |
| 2026-04-27 22:49 | 29.18787 | -81.03743 | 1753 ft | 168 kts | 71° |
| 2026-04-27 22:49 | 29.18817 | -81.02567 | 2082 ft | 209 kts | 98° |
| 2026-04-27 22:49 | 29.18234 | -81.01212 | 2412 ft | 249 kts | 126° |
| 2026-04-27 22:49 | 29.16920 | -81.00143 | 2764 ft | 267 kts | 154° |
| 2026-04-27 22:50 | 29.13165 | -80.99281 | 3554 ft | 276 kts | 174° |
| 2026-04-27 22:50 | 29.10943 | -80.99260 | 3991 ft | 279 kts | 180° |
| 2026-04-27 22:50 | 29.08979 | -80.99321 | 4116 ft | 280 kts | 180° |
| 2026-04-27 22:51 | 29.07036 | -80.99524 | 4115 ft | 278 kts | 194° |
| 2026-04-27 22:51 | 29.05412 | -81.00571 | 3997 ft | 266 kts | 225° |
| 2026-04-27 22:51 | 29.04389 | -81.02273 | 3580 ft | 261 kts | 249° |
| 2026-04-27 22:51 | 29.03970 | -81.04248 | 3188 ft | 255 kts | 267° |
| 2026-04-27 22:52 | 29.03976 | -81.06267 | 3119 ft | 251 kts | 281° |
| 2026-04-27 22:52 | 29.04317 | -81.08202 | 3120 ft | 250 kts | 288° |
| 2026-04-27 22:52 | 29.04762 | -81.10123 | 3122 ft | 251 kts | 289° |
| 2026-04-27 22:52 | 29.05187 | -81.12016 | 3122 ft | 252 kts | 287° |
| 2026-04-27 22:53 | 29.05592 | -81.13948 | 3122 ft | 252 kts | 286° |
| 2026-04-27 22:53 | 29.05979 | -81.15878 | 3124 ft | 248 kts | 286° |
| 2026-04-27 22:53 | 29.06345 | -81.17673 | 3130 ft | 222 kts | 290° |
| 2026-04-27 22:53 | 29.07117 | -81.19085 | 2970 ft | 204 kts | 324° |
| 2026-04-27 22:54 | 29.08352 | -81.19742 | 2595 ft | 194 kts | 351° |
| 2026-04-27 22:54 | 29.09607 | -81.19852 | 2515 ft | 175 kts | 6° |
| 2026-04-27 22:54 | 29.10793 | -81.19635 | 2530 ft | 167 kts | 18° |
| 2026-04-27 22:54 | 29.11804 | -81.19055 | 2393 ft | 164 kts | 38° |
| 2026-04-27 22:55 | 29.12540 | -81.18142 | 2139 ft | 156 kts | 53° |
| 2026-04-27 22:55 | 29.13168 | -81.17134 | 2117 ft | 156 kts | 53° |
| 2026-04-27 22:55 | 29.13803 | -81.16138 | 2115 ft | 145 kts | 53° |
| 2026-04-27 22:55 | 29.14278 | -81.15151 | 1933 ft | 143 kts | 73° |
| 2026-04-27 22:56 | 29.14349 | -81.14101 | 1744 ft | 138 kts | 75° |
| 2026-04-27 22:56 | 29.14766 | -81.13152 | 1729 ft | 136 kts | 54° |
| 2026-04-27 22:56 | 29.15266 | -81.12231 | 1335 ft | 148 kts | 56° |
| 2026-04-27 22:56 | 29.15766 | -81.11276 | 1022 ft | 140 kts | 58° |
| 2026-04-27 22:57 | 29.16206 | -81.10319 | 777 ft | 140 kts | 60° |
| 2026-04-27 22:57 | 29.16620 | -81.09324 | 491 ft | 141 kts | 62° |
| 2026-04-27 22:57 | 29.17022 | -81.08321 | 218 ft | 142 kts | 60° |
| 2026-04-27 22:57 | 29.17417 | -81.07368 | 48 ft | 133 kts | 61° |
| 2026-04-27 22:58 | 29.17755 | -81.06551 | 31 ft | 91 kts | 59° |
| 2026-04-27 22:58 | 29.17965 | -81.06101 | 31 ft | 31 kts | 6° |
| 2026-04-27 22:58 | 29.17993 | -81.06102 | 31 ft | 0 kts | 348° |
| 2026-04-27 22:58 | 29.17995 | -81.06103 | 31 ft | 1 kts | 349° |
| 2026-04-27 22:59 | 29.18026 | -81.06111 | 31 ft | 7 kts | 340° |
| 2026-04-27 22:59 | 29.18091 | -81.06142 | 31 ft | 13 kts | 334° |
| 2026-04-27 22:59 | 29.18185 | -81.06196 | 31 ft | 15 kts | 335° |
| 2026-04-27 22:59 | 29.18244 | -81.06132 | 31 ft | 15 kts | 101° |
| 2026-04-27 23:00 | 29.18315 | -81.06052 | 31 ft | 5 kts | 325° |
| 2026-04-27 23:00 | 29.18319 | -81.06055 | 31 ft | 0 kts | 327° |